Kine — C6WT4 — position and weather

sailwx.info

Track history (hours):
 
Tides and Currents Weather Stations Pressure Air Temp Water Temp Dewpoint Dewpoint Depression Visibility Wind Speed Wind Dir Waves Ship Positions

Kine

Last reported at 2017-Jan-20 10:33 UTC. Time now 2017-Jan-22 01:52 UTC.
Position N 60°08' E 019°12'.

Length 89 m; draft 5 m.

Type: Cargo ship. MMSI: 311117000.

Date/timePositionNaut miles runAvg speedWind from/ knotsBaromVisibWave heightAir tempDewpointWater temp
2017-Jan-20 10:33N 60°08' E 019°12'9 9.1
2017-Jan-20 09:33N 60°00' E 019°22'9 9.2
2017-Jan-20 08:33N 59°53' E 019°31'10 9.4
2017-Jan-20 07:33N 59°44' E 019°39'26 8.5
2017-Jan-20 04:32N 59°18' E 019°37'9 9.5
2017-Jan-20 03:33N 59°10' E 019°29'259 8.8
2017-Jan-18 22:13N 55°33' E 015°07'6 9.3
2017-Jan-18 21:32N 55°30' E 014°57'9 9.2
2017-Jan-18 20:33N 55°25' E 014°43'9 8.7
2017-Jan-18 19:33N 55°19' E 014°32'9 8.9
2017-Jan-18 18:33N 55°13' E 014°21'9 8.9
2017-Jan-18 17:33N 55°11' E 014°06'31 9.1
2017-Jan-18 14:09N 55°14' E 013°12'6 9.5
2017-Jan-18 13:33N 55°15' E 013°02'9 9.4
2017-Jan-18 12:33N 55°16' E 012°46'7 7.2
2017-Jan-18 11:33N 55°22' E 012°39'9 9.0
2017-Jan-18 10:33N 55°31' E 012°42'8 8.3
2017-Jan-18 09:33N 55°39' E 012°41'9 8.6
2017-Jan-18 08:33N 55°48' E 012°40'9 8.7
2017-Jan-18 07:33N 55°57' E 012°38'8 7.5
2017-Jan-18 06:33N 56°04' E 012°36'7 7.3
2017-Jan-18 05:33N 56°09' E 012°26'10 9.5
2017-Jan-18 04:29N 56°15' E 012°11'56 9.0
2017-Jan-17 22:16N 57°07' E 011°34'7 9.3
2017-Jan-17 21:34N 57°13' E 011°29'9 9.1
2017-Jan-17 20:33N 57°21' E 011°23'9 9.5
2017-Jan-17 19:34N 57°29' E 011°13'10 9.7
2017-Jan-17 18:34N 57°34' E 010°57'10 9.6
2017-Jan-17 17:33N 57°40' E 010°43'4 4.0
2017-Jan-17 16:32N 57°42' E 010°36'0 0.1
2017-Jan-17 15:33N 57°42' E 010°36'6 5.7
2017-Jan-17 14:34N 57°47' E 010°42'114 9.5
2017-Jan-17 02:33N 57°55' E 007°08'1010.4
2017-Jan-17 01:33N 57°59' E 006°49'9 9.2
2017-Jan-17 00:33N 58°02' E 006°34'9 8.7
2017-Jan-16 23:33N 58°08' E 006°21'9 8.5
2017-Jan-16 22:33N 58°13' E 006°09'9 8.8
2017-Jan-16 21:33N 58°19' E 005°57'8 8.4
2017-Jan-16 20:33N 58°25' E 005°45'9 8.8
2017-Jan-16 19:33N 58°32' E 005°34'10 9.7
2017-Jan-16 18:33N 58°40' E 005°24'9 9.2
2017-Jan-16 17:33N 58°47' E 005°14'10 9.5
2017-Jan-16 16:33N 58°55' E 005°04'  
2017-Jan-11 15:33N 66°15' E 012°34'5 4.7
2017-Jan-11 14:33N 66°15' E 012°22'  
Track history (hours):
 
Tides and Currents Weather Stations Pressure Air Temp Water Temp Dewpoint Dewpoint Depression Visibility Wind Speed Wind Dir Waves Ship Positions

Kine

Last reported at 2017-Jan-20 10:33 UTC. Time now 2017-Jan-22 01:52 UTC.
Position N 60°08' E 019°12'.

Length 89 m; draft 5 m.

Type: Cargo ship. MMSI: 311117000.

Date/timePositionNaut miles runAvg speedWind from/ knotsBaromVisibWave heightAir tempDewpointWater temp
2017-Jan-20 10:33N 60°08' E 019°12'9 9.1
2017-Jan-20 09:33N 60°00' E 019°22'9 9.2
2017-Jan-20 08:33N 59°53' E 019°31'10 9.4
2017-Jan-20 07:33N 59°44' E 019°39'26 8.5
2017-Jan-20 04:32N 59°18' E 019°37'9 9.5
2017-Jan-20 03:33N 59°10' E 019°29'259 8.8
2017-Jan-18 22:13N 55°33' E 015°07'6 9.3
2017-Jan-18 21:32N 55°30' E 014°57'9 9.2
2017-Jan-18 20:33N 55°25' E 014°43'9 8.7
2017-Jan-18 19:33N 55°19' E 014°32'9 8.9
2017-Jan-18 18:33N 55°13' E 014°21'9 8.9
2017-Jan-18 17:33N 55°11' E 014°06'31 9.1
2017-Jan-18 14:09N 55°14' E 013°12'6 9.5
2017-Jan-18 13:33N 55°15' E 013°02'9 9.4
2017-Jan-18 12:33N 55°16' E 012°46'7 7.2
2017-Jan-18 11:33N 55°22' E 012°39'9 9.0
2017-Jan-18 10:33N 55°31' E 012°42'8 8.3
2017-Jan-18 09:33N 55°39' E 012°41'9 8.6
2017-Jan-18 08:33N 55°48' E 012°40'9 8.7
2017-Jan-18 07:33N 55°57' E 012°38'8 7.5
2017-Jan-18 06:33N 56°04' E 012°36'7 7.3
2017-Jan-18 05:33N 56°09' E 012°26'10 9.5
2017-Jan-18 04:29N 56°15' E 012°11'56 9.0
2017-Jan-17 22:16N 57°07' E 011°34'7 9.3
2017-Jan-17 21:34N 57°13' E 011°29'9 9.1
2017-Jan-17 20:33N 57°21' E 011°23'9 9.5
2017-Jan-17 19:34N 57°29' E 011°13'10 9.7
2017-Jan-17 18:34N 57°34' E 010°57'10 9.6
2017-Jan-17 17:33N 57°40' E 010°43'4 4.0
2017-Jan-17 16:32N 57°42' E 010°36'0 0.1
2017-Jan-17 15:33N 57°42' E 010°36'6 5.7
2017-Jan-17 14:34N 57°47' E 010°42'114 9.5
2017-Jan-17 02:33N 57°55' E 007°08'1010.4
2017-Jan-17 01:33N 57°59' E 006°49'9 9.2
2017-Jan-17 00:33N 58°02' E 006°34'9 8.7
2017-Jan-16 23:33N 58°08' E 006°21'9 8.5
2017-Jan-16 22:33N 58°13' E 006°09'9 8.8
2017-Jan-16 21:33N 58°19' E 005°57'8 8.4
2017-Jan-16 20:33N 58°25' E 005°45'9 8.8
2017-Jan-16 19:33N 58°32' E 005°34'10 9.7
2017-Jan-16 18:33N 58°40' E 005°24'9 9.2
2017-Jan-16 17:33N 58°47' E 005°14'10 9.5
2017-Jan-16 16:33N 58°55' E 005°04'  
2017-Jan-11 15:33N 66°15' E 012°34'5 4.7
2017-Jan-11 14:33N 66°15' E 012°22'  

Dump ship's entire track history